createdAt,value
2022-12-12T00:01:41.617Z,0.10
2022-12-12T00:04:09.134Z,0.10
2022-12-12T00:06:36.657Z,0.00
2022-12-12T00:09:05.116Z,0.00
2022-12-12T00:11:32.641Z,0.00
2022-12-12T00:14:00.165Z,0.00
2022-12-12T00:16:28.511Z,-0.10
2022-12-12T00:18:56.063Z,-0.10
2022-12-12T00:21:23.597Z,-0.10
2022-12-12T00:23:51.167Z,-0.10
2022-12-12T00:26:18.685Z,-0.10
2022-12-12T00:28:46.989Z,-0.20
2022-12-12T00:31:14.606Z,-0.20
2022-12-12T00:33:42.127Z,-0.20
2022-12-12T00:36:09.653Z,-0.10
2022-12-12T00:38:37.985Z,-0.10
2022-12-12T00:41:05.519Z,-0.20
2022-12-12T00:43:33.065Z,-0.10
2022-12-12T00:46:02.503Z,-0.10
2022-12-12T00:48:30.778Z,-0.10
2022-12-12T00:50:58.273Z,-0.10
2022-12-12T00:53:27.141Z,-0.10
2022-12-12T00:55:57.597Z,-0.10
2022-12-12T00:58:25.909Z,0.20
2022-12-12T01:00:53.476Z,0.20
2022-12-12T01:03:21.074Z,0.30
2022-12-12T01:05:48.558Z,0.30
2022-12-12T01:08:16.928Z,0.30
2022-12-12T01:10:44.403Z,0.30
2022-12-12T01:13:11.924Z,0.30
2022-12-12T01:15:40.687Z,0.20
2022-12-12T01:18:08.067Z,0.20
2022-12-12T01:20:36.380Z,0.20
2022-12-12T01:23:03.993Z,0.20
2022-12-12T01:25:31.518Z,0.20
2022-12-12T01:27:59.043Z,0.20
2022-12-12T01:30:27.416Z,0.10
2022-12-12T01:32:54.911Z,0.10
2022-12-12T01:35:22.436Z,0.10
2022-12-12T01:37:51.131Z,0.40
2022-12-12T01:40:18.727Z,0.40
2022-12-12T01:42:46.210Z,0.40
2022-12-12T01:45:50.668Z,0.30
2022-12-12T01:48:18.224Z,0.30
2022-12-12T01:50:46.505Z,0.20
2022-12-12T01:53:14.357Z,0.20
2022-12-12T01:55:42.660Z,0.20
2022-12-12T01:58:10.183Z,0.20
2022-12-12T02:00:38.568Z,0.20
2022-12-12T02:03:06.063Z,0.20
2022-12-12T02:05:42.052Z,0.20
2022-12-12T02:08:10.005Z,0.20
2022-12-12T02:10:37.515Z,0.20
2022-12-12T02:13:05.789Z,0.20
2022-12-12T02:15:46.972Z,0.20
2022-12-12T02:18:19.826Z,0.20
2022-12-12T02:20:53.304Z,0.20
2022-12-12T02:23:20.839Z,0.20
2022-12-12T02:26:25.434Z,0.40
2022-12-12T02:29:14.060Z,0.70
2022-12-12T02:31:41.664Z,0.70
2022-12-12T02:34:36.541Z,0.60
2022-12-12T02:37:13.557Z,0.70
2022-12-12T02:39:49.953Z,0.70
2022-12-12T02:42:28.221Z,0.60
2022-12-12T02:44:55.756Z,0.50
2022-12-12T02:47:29.237Z,0.70
2022-12-12T02:49:59.574Z,0.70
2022-12-12T02:52:27.093Z,0.60
2022-12-12T02:54:54.618Z,0.50
2022-12-12T02:57:22.181Z,0.40
2022-12-12T02:59:52.652Z,0.30
2022-12-12T03:02:47.283Z,0.30
2022-12-12T03:05:57.933Z,0.50
2022-12-12T03:08:37.331Z,0.50
2022-12-12T03:11:13.377Z,0.40
2022-12-12T03:13:46.977Z,0.40
2022-12-12T03:16:29.282Z,0.30
2022-12-12T03:19:09.042Z,0.20
2022-12-12T03:21:55.048Z,0.20
2022-12-12T03:24:28.234Z,0.10
2022-12-12T03:27:07.271Z,0.00
2022-12-12T03:29:40.645Z,0.00
2022-12-12T03:32:13.653Z,0.30
2022-12-12T03:34:43.815Z,0.60
2022-12-12T03:37:12.305Z,0.50
2022-12-12T03:39:42.548Z,0.50
2022-12-12T03:42:12.727Z,0.40
2022-12-12T03:44:46.804Z,0.30
2022-12-12T03:47:14.332Z,0.20
2022-12-12T03:49:58.366Z,0.20
2022-12-12T03:52:31.653Z,0.20
2022-12-12T03:54:59.175Z,0.10
2022-12-12T03:57:26.740Z,0.10
2022-12-12T03:59:59.955Z,0.10
2022-12-12T04:02:35.021Z,0.20
2022-12-12T04:05:09.547Z,0.20
2022-12-12T04:07:39.910Z,0.20
2022-12-12T04:10:25.797Z,0.10
2022-12-12T04:13:11.733Z,0.00
2022-12-12T04:15:57.190Z,0.20
2022-12-12T04:18:37.317Z,0.30
2022-12-12T04:21:28.196Z,0.30
2022-12-12T04:24:07.952Z,0.20
2022-12-12T04:26:41.160Z,0.40
2022-12-12T04:29:26.430Z,0.30
2022-12-12T04:32:15.255Z,0.30
2022-12-12T04:35:11.669Z,0.10
2022-12-12T04:37:41.478Z,0.00
2022-12-12T04:40:09.278Z,-0.10
2022-12-12T04:42:37.218Z,-0.20
2022-12-12T04:45:07.488Z,-0.20
2022-12-12T04:47:35.053Z,-0.20
2022-12-12T04:50:03.484Z,-0.20
2022-12-12T04:52:31.020Z,-0.20
2022-12-12T04:55:14.889Z,-0.20
2022-12-12T04:57:42.010Z,-0.20
2022-12-12T05:00:10.538Z,-0.20
2022-12-12T05:02:53.029Z,-0.30
2022-12-12T05:05:29.229Z,-0.30
2022-12-12T05:07:56.836Z,-0.30
2022-12-12T05:10:24.358Z,-0.30
2022-12-12T05:12:51.886Z,-0.10
2022-12-12T05:15:19.426Z,0.00
2022-12-12T05:17:52.742Z,0.20
2022-12-12T05:20:20.286Z,0.30
2022-12-12T05:22:47.811Z,0.20
2022-12-12T05:25:17.039Z,0.10
2022-12-12T05:27:44.565Z,0.10
2022-12-12T05:30:12.906Z,0.00
2022-12-12T05:32:40.460Z,0.00
2022-12-12T05:35:08.369Z,0.00
2022-12-12T05:37:36.652Z,-0.10
2022-12-12T05:40:04.266Z,-0.10
2022-12-12T05:42:31.804Z,-0.10
2022-12-12T05:44:59.336Z,-0.10
2022-12-12T05:47:26.921Z,-0.10
2022-12-12T05:49:54.471Z,-0.10
2022-12-12T05:52:22.003Z,-0.10
2022-12-12T05:54:50.352Z,-0.10
2022-12-12T05:57:17.878Z,-0.10
2022-12-12T05:59:47.838Z,-0.10
2022-12-12T06:02:15.458Z,0.20
2022-12-12T06:04:43.714Z,0.20
2022-12-12T06:07:11.250Z,0.20
2022-12-12T06:09:39.976Z,0.10
2022-12-12T06:12:07.510Z,0.10
2022-12-12T06:14:35.035Z,0.10
2022-12-12T06:17:02.599Z,0.10
2022-12-12T06:19:30.896Z,0.10
2022-12-12T06:21:58.422Z,0.00
2022-12-12T06:24:25.985Z,0.00
2022-12-12T06:26:53.518Z,0.00
2022-12-12T06:29:21.049Z,0.00
2022-12-12T06:31:48.633Z,0.00
2022-12-12T06:34:16.158Z,0.00
2022-12-12T06:36:43.684Z,-0.10
2022-12-12T06:39:12.320Z,-0.10
2022-12-12T06:41:39.847Z,-0.20
2022-12-12T06:44:08.140Z,-0.20
2022-12-12T06:46:35.772Z,-0.20
2022-12-12T06:49:03.269Z,-0.20
2022-12-12T06:51:30.812Z,-0.20
2022-12-12T06:53:58.705Z,0.00
2022-12-12T06:56:26.241Z,0.10
2022-12-12T06:58:53.765Z,0.10
2022-12-12T07:01:21.366Z,0.00
2022-12-12T07:03:52.435Z,-0.10
2022-12-12T07:06:19.968Z,-0.10
2022-12-12T07:08:47.522Z,-0.10
2022-12-12T07:11:15.053Z,-0.10
2022-12-12T07:13:43.340Z,-0.10
2022-12-12T07:16:11.560Z,-0.10
2022-12-12T07:18:39.051Z,-0.10
2022-12-12T07:21:07.364Z,-0.10
2022-12-12T07:23:34.976Z,-0.10
2022-12-12T07:26:05.533Z,0.00
2022-12-12T07:28:33.825Z,0.20
2022-12-12T07:31:01.500Z,0.20
2022-12-12T07:33:39.589Z,0.30
2022-12-12T07:35:59.442Z,0.20
2022-12-12T07:38:27.789Z,0.20
2022-12-12T07:40:55.300Z,0.20
2022-12-12T07:43:26.376Z,0.20
2022-12-12T07:45:50.389Z,0.10
2022-12-12T07:48:17.924Z,0.10
2022-12-12T07:50:45.449Z,0.40
2022-12-12T07:53:13.022Z,0.60
2022-12-12T07:55:40.586Z,0.70
2022-12-12T07:58:08.076Z,0.60
2022-12-12T08:00:36.202Z,0.50
2022-12-12T08:03:03.737Z,0.50
2022-12-12T08:05:32.039Z,0.30
2022-12-12T08:08:00.531Z,0.30
2022-12-12T08:10:28.772Z,0.30
2022-12-12T08:12:56.324Z,0.30
2022-12-12T08:15:23.874Z,0.20
2022-12-12T08:17:52.174Z,0.10
2022-12-12T08:20:19.698Z,0.10
2022-12-12T08:22:47.263Z,0.00
2022-12-12T08:25:15.131Z,0.00
2022-12-12T08:27:42.319Z,0.00
2022-12-12T08:30:10.030Z,0.00
2022-12-12T08:32:37.553Z,0.00
2022-12-12T08:35:05.087Z,-0.10
2022-12-12T08:37:34.501Z,0.10
2022-12-12T08:40:02.038Z,0.20
2022-12-12T08:42:30.330Z,0.30
2022-12-12T08:44:57.903Z,0.30
2022-12-12T08:47:25.429Z,0.20
2022-12-12T08:49:53.731Z,0.20
2022-12-12T08:52:21.316Z,0.20
2022-12-12T08:54:48.835Z,0.20
2022-12-12T08:57:17.196Z,0.20
2022-12-12T08:59:43.981Z,0.20
2022-12-12T09:02:11.654Z,0.10
2022-12-12T09:04:39.797Z,0.10
2022-12-12T09:07:08.767Z,0.10
2022-12-12T09:09:34.890Z,0.10
2022-12-12T09:12:03.198Z,0.20
2022-12-12T09:14:30.744Z,0.20
2022-12-12T09:16:58.281Z,0.20
2022-12-12T09:19:25.805Z,0.30
2022-12-12T09:21:53.379Z,0.30
2022-12-12T09:24:20.924Z,0.30
2022-12-12T09:26:48.458Z,0.50
2022-12-12T09:29:16.139Z,0.80
2022-12-12T09:31:43.714Z,0.80
2022-12-12T09:34:11.204Z,0.80
2022-12-12T09:36:39.534Z,0.70
2022-12-12T09:39:07.072Z,0.70
2022-12-12T09:41:34.600Z,0.60
2022-12-12T09:44:08.921Z,0.50
2022-12-12T09:46:43.249Z,0.40
2022-12-12T09:49:13.905Z,0.50
2022-12-12T09:51:41.443Z,0.40
2022-12-12T09:54:08.966Z,0.40
2022-12-12T09:56:42.714Z,0.40
2022-12-12T09:59:15.939Z,0.40
2022-12-12T10:02:01.775Z,0.40
2022-12-12T10:04:41.879Z,0.40
2022-12-12T10:07:11.338Z,0.70
2022-12-12T10:09:47.737Z,0.70
2022-12-12T10:12:15.290Z,0.70
2022-12-12T10:14:51.518Z,0.70
2022-12-12T10:17:25.840Z,0.60
2022-12-12T10:19:59.396Z,0.60
2022-12-12T10:22:29.631Z,0.70
2022-12-12T10:24:58.070Z,0.70
2022-12-12T10:27:25.605Z,0.90
2022-12-12T10:29:53.129Z,1.00
2022-12-12T10:32:32.697Z,1.00
2022-12-12T10:35:03.215Z,0.90
2022-12-12T10:37:36.099Z,0.90
2022-12-12T10:40:16.870Z,1.00
2022-12-12T10:42:45.158Z,0.90
2022-12-12T10:45:27.734Z,0.90
2022-12-12T10:47:55.203Z,1.00
2022-12-12T10:50:32.268Z,1.00
2022-12-12T10:52:59.814Z,1.00
2022-12-12T10:55:48.900Z,1.20
2022-12-12T10:58:16.435Z,1.50
2022-12-12T11:00:44.004Z,1.50
2022-12-12T11:03:11.661Z,1.40
2022-12-12T11:05:39.089Z,1.60
2022-12-12T11:08:21.751Z,1.60
2022-12-12T11:11:07.201Z,1.60
2022-12-12T11:13:40.772Z,1.50
2022-12-12T11:16:13.046Z,1.50
2022-12-12T11:18:36.600Z,1.70
2022-12-12T11:21:10.007Z,1.70
2022-12-12T11:23:37.538Z,1.70
2022-12-12T11:26:14.507Z,1.70
2022-12-12T11:28:42.029Z,1.70
2022-12-12T11:31:09.565Z,1.90
2022-12-12T11:33:42.642Z,1.90
2022-12-12T11:36:10.167Z,2.10
2022-12-12T11:38:38.473Z,2.00
2022-12-12T11:41:06.069Z,2.00
2022-12-12T11:43:33.592Z,1.90
2022-12-12T11:46:16.986Z,1.90
2022-12-12T11:48:47.500Z,1.80
2022-12-12T11:51:15.030Z,1.80
2022-12-12T11:53:42.907Z,1.80
2022-12-12T11:56:19.137Z,2.00
2022-12-12T11:58:46.671Z,2.00
2022-12-12T12:01:26.741Z,1.90
2022-12-12T12:04:03.530Z,2.00
2022-12-12T12:06:45.996Z,1.90
2022-12-12T12:09:25.361Z,1.90
2022-12-12T12:12:08.403Z,1.70
2022-12-12T12:15:13.407Z,1.70
2022-12-12T12:17:55.610Z,1.70
2022-12-12T12:20:29.674Z,1.90
2022-12-12T12:23:23.322Z,1.90
2022-12-12T12:26:24.380Z,1.90
2022-12-12T12:29:22.979Z,1.90
2022-12-12T12:31:56.589Z,1.80
2022-12-12T12:34:33.123Z,1.80
2022-12-12T12:37:28.072Z,2.00
2022-12-12T12:40:10.699Z,2.00
2022-12-12T12:42:49.967Z,1.90
2022-12-12T12:45:21.570Z,1.90
2022-12-12T12:48:04.553Z,1.90
2022-12-12T12:50:34.432Z,1.90
2022-12-12T12:53:08.701Z,2.00
2022-12-12T12:55:36.236Z,2.00
2022-12-12T12:58:04.056Z,1.90
2022-12-12T13:00:31.581Z,1.90
2022-12-12T13:03:02.106Z,1.90
2022-12-12T13:05:41.398Z,1.80
2022-12-12T13:08:14.938Z,1.80
2022-12-12T13:10:45.025Z,2.00
2022-12-12T13:13:23.352Z,2.00
2022-12-12T13:16:05.840Z,1.90
2022-12-12T13:18:44.514Z,1.90
2022-12-12T13:21:25.488Z,1.80
2022-12-12T13:24:15.236Z,1.80
2022-12-12T13:26:45.458Z,1.80
2022-12-12T13:29:31.189Z,1.70
2022-12-12T13:32:35.984Z,1.70
2022-12-12T13:35:13.336Z,1.70
2022-12-12T13:37:42.955Z,1.60
2022-12-12T13:40:10.641Z,1.60
2022-12-12T13:42:50.650Z,1.50
2022-12-12T13:45:40.236Z,1.50
2022-12-12T13:48:11.200Z,1.50
2022-12-12T13:50:38.724Z,1.50
2022-12-12T13:53:07.019Z,1.40
2022-12-12T13:55:34.602Z,1.40
2022-12-12T13:58:02.131Z,1.40
2022-12-12T14:00:29.659Z,1.40
2022-12-12T14:03:02.012Z,1.40
2022-12-12T14:05:42.512Z,1.40
2022-12-12T14:08:11.798Z,1.60
2022-12-12T14:10:41.717Z,1.60
2022-12-12T14:13:16.016Z,1.60
2022-12-12T14:15:43.997Z,1.60
2022-12-12T14:18:11.479Z,1.50
2022-12-12T14:20:39.023Z,1.70
2022-12-12T14:23:07.662Z,1.60
2022-12-12T14:25:37.903Z,1.60
2022-12-12T14:28:14.320Z,1.50
2022-12-12T14:31:03.040Z,1.40
2022-12-12T14:33:36.042Z,1.30
2022-12-12T14:36:28.291Z,1.20
2022-12-12T14:39:33.252Z,1.20
2022-12-12T14:42:00.776Z,1.10
2022-12-12T14:44:37.894Z,0.90
2022-12-12T14:46:59.912Z,0.90
2022-12-12T14:49:27.438Z,0.90
2022-12-12T14:51:55.740Z,0.90
2022-12-12T14:54:23.323Z,0.90
2022-12-12T14:56:53.050Z,0.90
2022-12-12T14:59:21.916Z,0.90
2022-12-12T15:01:59.032Z,0.90
2022-12-12T15:04:26.570Z,0.90
2022-12-12T15:06:54.115Z,0.80
2022-12-12T15:09:37.147Z,0.80
2022-12-12T15:12:10.833Z,0.80
2022-12-12T15:14:38.357Z,0.70
2022-12-12T15:17:06.968Z,0.60
2022-12-12T15:19:37.456Z,0.60
2022-12-12T15:22:04.990Z,0.60
2022-12-12T15:24:32.574Z,0.50
2022-12-12T15:27:00.112Z,0.50
2022-12-12T15:29:27.664Z,0.40
2022-12-12T15:31:58.116Z,0.40
2022-12-12T15:34:31.486Z,0.30
2022-12-12T15:37:20.346Z,0.20
2022-12-12T15:39:56.565Z,0.20
2022-12-12T15:42:24.092Z,0.20
2022-12-12T15:44:51.704Z,0.20
2022-12-12T15:47:19.219Z,0.10
2022-12-12T15:49:47.514Z,0.70
2022-12-12T15:52:21.654Z,0.60
2022-12-12T15:54:49.198Z,0.60
2022-12-12T15:57:19.415Z,0.50
2022-12-12T15:59:47.300Z,0.40
2022-12-12T16:02:24.170Z,0.30
2022-12-12T16:04:54.568Z,0.20
2022-12-12T16:07:22.876Z,0.00
2022-12-12T16:10:02.031Z,0.00
2022-12-12T16:13:00.329Z,-0.10
2022-12-12T16:15:30.849Z,-0.20
2022-12-12T16:18:01.240Z,-0.20
2022-12-12T16:20:30.586Z,-0.30
2022-12-12T16:22:57.390Z,-0.40
2022-12-12T16:25:27.780Z,-0.40
2022-12-12T16:27:56.074Z,-0.40
2022-12-12T16:30:23.656Z,-0.40
2022-12-12T16:32:51.194Z,-0.40
2022-12-12T16:35:18.726Z,-0.50
2022-12-12T16:37:47.060Z,-0.60
2022-12-12T16:40:14.844Z,-0.60
2022-12-12T16:42:42.148Z,-0.70
2022-12-12T16:45:10.985Z,-0.80
2022-12-12T16:47:38.507Z,-0.90
2022-12-12T16:50:06.042Z,-1.00
2022-12-12T16:52:34.375Z,-1.10
2022-12-12T16:55:01.939Z,-1.10
2022-12-12T16:57:29.513Z,-1.10
2022-12-12T16:59:57.459Z,-1.10
2022-12-12T17:02:24.968Z,-1.10
2022-12-12T17:04:53.259Z,-1.20
2022-12-12T17:07:21.118Z,-1.20
2022-12-12T17:09:48.652Z,-1.20
2022-12-12T17:12:16.995Z,-1.20
2022-12-12T17:14:44.570Z,-1.20
2022-12-12T17:17:12.093Z,-1.20
2022-12-12T17:19:39.618Z,-1.20
2022-12-12T17:22:08.315Z,-1.30
2022-12-12T17:24:35.849Z,-1.30
2022-12-12T17:27:04.152Z,-1.30
2022-12-12T17:29:31.736Z,-1.30
2022-12-12T17:31:59.394Z,-1.30
2022-12-12T17:34:26.796Z,-1.30
2022-12-12T17:36:54.372Z,-1.40
2022-12-12T17:39:22.675Z,-1.40
2022-12-12T17:41:50.250Z,-1.50
2022-12-12T17:44:18.539Z,-1.60
2022-12-12T17:46:46.075Z,-1.60
2022-12-12T17:49:13.599Z,-1.70
2022-12-12T17:51:41.951Z,-1.70
2022-12-12T17:54:09.476Z,-1.70
2022-12-12T17:56:37.010Z,-1.80
2022-12-12T17:59:04.595Z,-1.80
2022-12-12T18:01:32.158Z,-1.80
2022-12-12T18:03:59.769Z,-1.80
2022-12-12T18:06:28.008Z,-1.80
2022-12-12T18:08:55.541Z,-1.80
2022-12-12T18:11:25.776Z,-1.90
2022-12-12T18:13:53.362Z,-1.70
2022-12-12T18:16:20.952Z,-1.70
2022-12-12T18:18:48.437Z,-1.80
2022-12-12T18:21:35.784Z,-1.80
2022-12-12T18:23:43.570Z,-1.90
2022-12-12T18:26:11.129Z,-1.90
2022-12-12T18:28:38.713Z,-2.00
2022-12-12T18:31:06.258Z,-2.00
2022-12-12T18:33:33.803Z,-2.00
2022-12-12T18:36:07.393Z,-1.80
2022-12-12T18:38:34.917Z,-1.80
2022-12-12T18:41:02.455Z,-1.90
2022-12-12T18:43:30.026Z,-2.00
2022-12-12T18:46:01.517Z,-2.20
2022-12-12T18:48:28.850Z,-2.20
2022-12-12T18:50:57.446Z,-2.30
2022-12-12T18:53:24.980Z,-2.30
2022-12-12T18:55:53.275Z,-2.30
2022-12-12T18:58:21.163Z,-2.30
2022-12-12T19:00:48.720Z,-2.10
2022-12-12T19:03:17.002Z,-1.50
2022-12-12T19:05:45.362Z,-1.50
2022-12-12T19:08:13.008Z,-1.60
2022-12-12T19:10:41.199Z,-2.00
2022-12-12T19:13:08.787Z,-2.00
2022-12-12T19:15:36.308Z,-2.10
2022-12-12T19:18:03.865Z,-2.20
2022-12-12T19:20:32.204Z,-2.40
2022-12-12T19:22:59.750Z,-2.40
2022-12-12T19:25:27.283Z,-2.50
2022-12-12T19:27:55.144Z,-2.30
2022-12-12T19:30:22.672Z,-2.30
2022-12-12T19:32:51.010Z,-2.20
2022-12-12T19:35:18.547Z,-2.20
2022-12-12T19:37:46.080Z,-2.20
2022-12-12T19:40:14.678Z,-2.50
2022-12-12T19:42:42.548Z,-2.50
2022-12-12T19:45:10.073Z,-2.50
2022-12-12T19:47:38.414Z,-2.70
2022-12-12T19:50:06.087Z,-2.70
2022-12-12T19:52:33.622Z,-2.80
2022-12-12T19:55:01.157Z,-2.80
2022-12-12T19:57:28.750Z,-2.70
2022-12-12T19:59:56.284Z,-2.70
2022-12-12T20:02:23.844Z,-2.80
2022-12-12T20:04:53.934Z,-3.00
2022-12-12T20:07:22.227Z,-3.10
2022-12-12T20:09:49.761Z,-3.10
2022-12-12T20:12:18.107Z,-3.20
2022-12-12T20:14:45.640Z,-3.20
2022-12-12T20:17:13.192Z,-3.20
2022-12-12T20:19:40.767Z,-3.20
2022-12-12T20:22:08.302Z,-3.00
2022-12-12T20:24:35.839Z,-2.70
2022-12-12T20:27:04.189Z,-2.90
2022-12-12T20:29:31.727Z,-2.90
2022-12-12T20:31:59.269Z,-3.00
2022-12-12T20:34:26.822Z,-2.80
2022-12-12T20:36:54.367Z,-2.90
2022-12-12T20:39:21.935Z,-3.00
2022-12-12T20:41:50.261Z,-3.20
2022-12-12T20:44:17.796Z,-3.20
2022-12-12T20:46:45.313Z,-3.30
2022-12-12T20:49:15.976Z,-3.40
2022-12-12T20:51:59.171Z,-3.40
2022-12-12T20:54:11.067Z,-3.50
2022-12-12T20:56:44.501Z,-3.50
2022-12-12T20:59:06.204Z,-3.60
2022-12-12T21:01:33.760Z,-3.70
2022-12-12T21:04:01.318Z,-3.70
2022-12-12T21:06:31.286Z,-3.80
2022-12-12T21:09:01.830Z,-3.80
2022-12-12T21:11:29.247Z,-3.80
2022-12-12T21:13:56.773Z,-3.80
2022-12-12T21:16:24.317Z,-3.90
2022-12-12T21:18:52.205Z,-3.90
2022-12-12T21:21:19.730Z,-3.90
2022-12-12T21:23:48.035Z,-3.90
2022-12-12T21:26:19.693Z,-3.90
2022-12-12T21:28:43.154Z,-3.90
2022-12-12T21:31:10.720Z,-3.90
2022-12-12T21:33:39.033Z,-3.90
2022-12-12T21:36:06.602Z,-4.00
2022-12-12T21:38:34.148Z,-4.00
2022-12-12T21:41:04.686Z,-3.70
2022-12-12T21:43:32.221Z,-3.70
2022-12-12T21:45:59.786Z,-3.80
2022-12-12T21:48:28.082Z,-3.90
2022-12-12T21:50:55.617Z,-3.90
2022-12-12T21:53:35.104Z,-3.90
2022-12-12T21:56:09.108Z,-3.70
2022-12-12T21:58:37.401Z,-3.80
2022-12-12T22:01:07.731Z,-3.80
2022-12-12T22:03:35.268Z,-3.90
2022-12-12T22:06:12.825Z,-4.00
2022-12-12T22:08:40.359Z,-4.00
2022-12-12T22:11:07.894Z,-4.00
2022-12-12T22:13:39.824Z,-3.80
2022-12-12T22:16:03.050Z,-3.80
2022-12-12T22:18:30.557Z,-3.90
2022-12-12T22:21:07.772Z,-3.90
2022-12-12T22:23:35.315Z,-3.90
2022-12-12T22:26:18.329Z,-3.80
2022-12-12T22:28:46.651Z,-3.70
2022-12-12T22:31:14.243Z,-3.80
2022-12-12T22:33:42.065Z,-3.70
2022-12-12T22:36:09.589Z,-3.60
2022-12-12T22:38:38.488Z,-3.50
2022-12-12T22:41:05.466Z,-3.60
2022-12-12T22:43:33.003Z,-3.50
2022-12-12T22:46:06.359Z,-3.50
2022-12-12T22:48:34.609Z,-3.50
2022-12-12T22:51:13.703Z,-3.50
2022-12-12T22:53:44.349Z,-3.50
2022-12-12T22:56:08.804Z,-3.50
2022-12-12T22:58:37.132Z,-3.50
2022-12-12T23:01:10.813Z,-3.50
2022-12-12T23:03:38.340Z,-3.50
2022-12-12T23:06:06.637Z,-3.50
2022-12-12T23:08:34.272Z,-3.50
2022-12-12T23:11:07.447Z,-3.50
2022-12-12T23:13:35.790Z,-3.40
2022-12-12T23:16:06.147Z,-3.50
2022-12-12T23:18:33.630Z,-3.50
2022-12-12T23:21:01.923Z,-3.50
2022-12-12T23:23:29.497Z,-3.50
2022-12-12T23:25:57.022Z,-3.50
2022-12-12T23:28:25.324Z,-3.50
2022-12-12T23:30:52.888Z,-3.60
2022-12-12T23:33:20.422Z,-3.60
2022-12-12T23:35:48.725Z,-3.60
2022-12-12T23:38:16.585Z,-3.60
2022-12-12T23:40:44.141Z,-3.60
2022-12-12T23:43:11.677Z,-3.60
2022-12-12T23:45:40.409Z,-3.60
2022-12-12T23:48:07.905Z,-3.70
2022-12-12T23:50:35.444Z,-3.70
2022-12-12T23:53:06.259Z,-3.70
2022-12-12T23:55:31.337Z,-3.70
2022-12-12T23:57:58.872Z,-3.70
